Time;durP1;ratioP1;P1;durP2;ratioP2;P2;SDS_P1;SDS_P2;PMS_P1;PMS_P2;Temp;Humidity;BMP_temperature;BMP_pressure;BME280_temperature;BME280_humidity;BME280_pressure;Samples;Min_cycle;Max_cycle;Signal;HPM_P1;HPM_P2
2023/08/08 00:00:45;;;;;;;;;6.00;6.00;;;;;;;;5084981;27;48096;-76
2023/08/08 00:03:11;;;;;;;;;6.00;6.00;;;;;;;;5103413;27;45460;-76
2023/08/08 00:05:36;;;;;;;;;4.00;4.00;;;;;;;;5085145;27;45495;-76
2023/08/08 00:08:01;;;;;;;;;7.00;7.00;;;;;;;;5084573;27;47292;-76
2023/08/08 00:10:26;;;;;;;;;7.00;7.00;;;;;;;;5102602;27;46259;-75
2023/08/08 00:12:51;;;;;;;;;7.00;7.00;;;;;;;;5084792;27;45355;-76
2023/08/08 00:15:16;;;;;;;;;7.00;7.00;;;;;;;;5103403;27;45235;-76
2023/08/08 00:17:42;;;;;;;;;10.00;8.67;;;;;;;;5103071;27;45469;-76
2023/08/08 00:20:07;;;;;;;;;8.67;8.33;;;;;;;;5084512;27;46939;-77
2023/08/08 00:22:32;;;;;;;;;6.00;6.00;;;;;;;;5103055;27;45292;-76
2023/08/08 00:24:58;;;;;;;;;6.00;6.00;;;;;;;;5084711;27;45367;-76
2023/08/08 00:27:23;;;;;;;;;7.00;7.00;;;;;;;;5084554;27;46129;-76
2023/08/08 00:29:48;;;;;;;;;7.00;7.00;;;;;;;;5128982;27;45791;-76
2023/08/08 00:32:13;;;;;;;;;7.00;7.00;;;;;;;;5144343;27;45303;-76
2023/08/08 00:34:39;;;;;;;;;6.67;6.67;;;;;;;;5144433;27;45169;-76
2023/08/08 00:37:04;;;;;;;;;6.00;6.00;;;;;;;;5144028;27;45231;-75
2023/08/08 00:39:29;;;;;;;;;6.33;5.33;;;;;;;;5125444;27;47311;-75
2023/08/08 00:41:54;;;;;;;;;7.00;6.00;;;;;;;;5143930;27;45170;-76
2023/08/08 00:44:20;;;;;;;;;7.67;6.00;;;;;;;;5144276;27;45261;-76
2023/08/08 00:46:45;;;;;;;;;8.00;7.00;;;;;;;;5144237;27;45238;-76
2023/08/08 00:49:10;;;;;;;;;8.00;7.00;;;;;;;;5125351;27;47136;-75
2023/08/08 00:51:36;;;;;;;;;8.33;8.33;;;;;;;;5143815;27;45362;-76
2023/08/08 00:54:01;;;;;;;;;9.33;9.33;;;;;;;;5144215;27;45368;-75
2023/08/08 00:56:26;;;;;;;;;8.00;8.00;;;;;;;;5143753;27;45170;-76
2023/08/08 00:58:51;;;;;;;;;9.33;9.00;;;;;;;;5143834;27;46134;-76
2023/08/08 01:01:17;;;;;;;;;10.33;9.00;;;;;;;;5125179;27;45294;-76
2023/08/08 01:03:42;;;;;;;;;9.33;8.33;;;;;;;;5125317;27;45296;-77
2023/08/08 01:06:20;;;;;;;;;9.00;8.33;;;;;;;;5143751;27;45210;-76
2023/08/08 01:08:47;;;;;;;;;10.67;10.00;;;;;;;;5143789;27;46320;-76
2023/08/08 01:11:14;;;;;;;;;5.67;5.67;;;;;;;;5124841;27;45371;-76
2023/08/08 01:13:40;;;;;;;;;9.33;8.67;;;;;;;;5143838;27;45201;-76
2023/08/08 01:16:06;;;;;;;;;8.67;8.67;;;;;;;;5143652;27;45237;-76
2023/08/08 01:18:31;;;;;;;;;11.00;11.00;;;;;;;;5143506;27;45899;-76
2023/08/08 01:20:57;;;;;;;;;13.00;13.00;;;;;;;;5143473;27;45555;-76
2023/08/08 01:23:42;;;;;;;;;10.33;10.33;;;;;;;;5143719;27;45211;-75
2023/08/08 01:26:08;;;;;;;;;10.33;10.33;;;;;;;;5142700;27;45211;-76
2023/08/08 01:28:33;;;;;;;;;8.67;8.67;;;;;;;;5140868;27;45622;-76
2023/08/08 01:30:59;;;;;;;;;12.00;12.00;;;;;;;;5122643;27;45392;-76
2023/08/08 01:33:24;;;;;;;;;12.67;10.67;;;;;;;;5122846;27;45380;-76
2023/08/08 01:35:54;;;;;;;;;9.33;9.00;;;;;;;;5122406;27;45345;-75
2023/08/08 01:38:20;;;;;;;;;13.67;13.00;;;;;;;;5103655;27;48586;-76
2023/08/08 01:40:46;;;;;;;;;11.33;10.67;;;;;;;;5122048;27;45196;-76
2023/08/08 01:43:12;;;;;;;;;12.00;12.00;;;;;;;;5122251;27;45274;-76
2023/08/08 01:45:38;;;;;;;;;10.67;10.67;;;;;;;;5122377;27;45269;-76
2023/08/08 01:48:09;;;;;;;;;11.00;11.00;;;;;;;;5122094;27;46231;-77
2023/08/08 01:50:35;;;;;;;;;9.67;9.67;;;;;;;;5122176;27;45211;-76
2023/08/08 01:53:00;;;;;;;;;15.00;12.67;;;;;;;;5122344;27;45242;-76
2023/08/08 01:55:26;;;;;;;;;11.00;9.67;;;;;;;;5122066;27;45172;-76
2023/08/08 01:57:51;;;;;;;;;10.33;10.33;;;;;;;;5122026;27;46012;-76
2023/08/08 02:00:17;;;;;;;;;8.67;8.67;;;;;;;;5121865;27;45266;-76
2023/08/08 02:02:42;;;;;;;;;12.00;11.33;;;;;;;;5103381;27;45190;-75
2023/08/08 02:05:07;;;;;;;;;10.00;9.00;;;;;;;;5122050;27;45190;-76
2023/08/08 02:07:32;;;;;;;;;10.00;9.00;;;;;;;;5121800;27;45330;-76
2023/08/08 02:09:58;;;;;;;;;9.00;9.00;;;;;;;;5121996;27;45532;-76
2023/08/08 02:12:23;;;;;;;;;11.00;9.33;;;;;;;;5122058;27;45262;-76
2023/08/08 02:14:48;;;;;;;;;10.00;10.00;;;;;;;;5121803;27;45779;-76
2023/08/08 02:17:13;;;;;;;;;11.00;11.00;;;;;;;;5121855;27;45713;-76
2023/08/08 02:19:38;;;;;;;;;10.00;9.33;;;;;;;;5103231;27;45974;-76
2023/08/08 02:22:04;;;;;;;;;8.33;8.00;;;;;;;;5121886;27;45238;-76
2023/08/08 02:24:29;;;;;;;;;8.33;8.33;;;;;;;;5121737;27;45405;-77
2023/08/08 02:26:54;;;;;;;;;9.00;9.00;;;;;;;;5121549;27;45389;-76
2023/08/08 02:29:19;;;;;;;;;10.00;10.00;;;;;;;;5130608;27;45395;-76
2023/08/08 02:31:45;;;;;;;;;9.00;9.00;;;;;;;;5142609;27;45573;-76
2023/08/08 02:34:10;;;;;;;;;10.33;10.33;;;;;;;;5123553;27;45974;-76
2023/08/08 02:36:35;;;;;;;;;13.33;12.67;;;;;;;;5142112;27;45302;-76
2023/08/08 02:39:00;;;;;;;;;8.00;8.00;;;;;;;;5123516;27;45316;-76
2023/08/08 02:41:25;;;;;;;;;11.00;11.00;;;;;;;;5123339;27;45531;-76
2023/08/08 02:43:51;;;;;;;;;11.33;11.33;;;;;;;;5121478;27;45380;-76
2023/08/08 02:46:16;;;;;;;;;10.67;10.67;;;;;;;;5102786;27;46122;-76
2023/08/08 02:48:41;;;;;;;;;11.33;11.33;;;;;;;;5121446;27;45269;-76
2023/08/08 02:51:06;;;;;;;;;9.00;8.00;;;;;;;;5121327;27;45365;-76
2023/08/08 02:53:31;;;;;;;;;11.67;9.67;;;;;;;;5102823;27;46401;-76
2023/08/08 02:55:56;;;;;;;;;9.33;9.33;;;;;;;;5120849;27;46300;-76
2023/08/08 02:58:22;;;;;;;;;9.00;9.00;;;;;;;;5102760;27;45251;-76
2023/08/08 03:00:47;;;;;;;;;10.00;9.00;;;;;;;;5102752;27;45547;-76
2023/08/08 03:03:12;;;;;;;;;8.00;8.00;;;;;;;;5121369;27;45373;-76
2023/08/08 03:05:37;;;;;;;;;8.67;8.67;;;;;;;;5121056;27;46060;-76
2023/08/08 03:08:02;;;;;;;;;10.67;9.00;;;;;;;;5121189;27;45399;-76
2023/08/08 03:10:28;;;;;;;;;9.00;9.00;;;;;;;;5121060;27;45279;-75
2023/08/08 03:12:53;;;;;;;;;8.00;8.00;;;;;;;;5101710;27;45377;-76
2023/08/08 03:15:18;;;;;;;;;9.67;9.67;;;;;;;;5120992;27;45332;-76
2023/08/08 03:17:43;;;;;;;;;11.00;10.00;;;;;;;;5102502;27;45237;-77
2023/08/08 03:20:10;;;;;;;;;11.00;9.00;;;;;;;;5121067;27;45188;-75
2023/08/08 03:22:36;;;;;;;;;9.33;8.00;;;;;;;;5120594;27;45253;-76
2023/08/08 03:25:01;;;;;;;;;10.67;10.00;;;;;;;;5120528;27;45195;-76
2023/08/08 03:27:26;;;;;;;;;11.00;10.00;;;;;;;;5120961;27;45265;-75
2023/08/08 03:29:51;;;;;;;;;9.33;8.00;;;;;;;;5120919;27;45168;-75
2023/08/08 03:32:17;;;;;;;;;8.00;8.00;;;;;;;;5102204;27;47240;-76
2023/08/08 03:34:42;;;;;;;;;8.67;8.67;;;;;;;;5120512;27;45198;-76
2023/08/08 03:37:07;;;;;;;;;9.00;9.00;;;;;;;;5120651;27;45204;-76
2023/08/08 03:39:33;;;;;;;;;10.67;10.67;;;;;;;;5102040;27;45260;-75
2023/08/08 03:41:58;;;;;;;;;11.00;11.00;;;;;;;;5120363;27;45310;-76
2023/08/08 03:44:23;;;;;;;;;9.67;9.67;;;;;;;;5120566;27;45314;-76
2023/08/08 03:46:49;;;;;;;;;9.33;9.33;;;;;;;;5120693;27;45129;-75
2023/08/08 03:49:14;;;;;;;;;11.33;9.00;;;;;;;;5120853;27;45339;-76
2023/08/08 03:51:39;;;;;;;;;8.67;8.67;;;;;;;;5101437;27;45496;-76
2023/08/08 03:54:05;;;;;;;;;9.33;9.00;;;;;;;;5120591;27;46276;-76
2023/08/08 03:56:30;;;;;;;;;8.67;8.00;;;;;;;;5120276;27;45300;-76
2023/08/08 03:58:56;;;;;;;;;10.33;9.67;;;;;;;;5120652;27;45366;-76
2023/08/08 04:01:21;;;;;;;;;8.00;8.00;;;;;;;;5120470;27;45487;-76
2023/08/08 04:03:46;;;;;;;;;4.33;4.33;;;;;;;;5120256;27;46524;-76
2023/08/08 04:06:12;;;;;;;;;7.67;7.67;;;;;;;;5101878;27;45418;-76
2023/08/08 04:08:37;;;;;;;;;9.00;9.00;;;;;;;;5120521;27;45232;-75
2023/08/08 04:11:02;;;;;;;;;7.00;6.00;;;;;;;;5120144;27;45343;-76
2023/08/08 04:13:27;;;;;;;;;8.00;8.00;;;;;;;;5120264;27;45940;-76
2023/08/08 04:15:52;;;;;;;;;7.33;7.33;;;;;;;;5120268;27;45392;-76
2023/08/08 04:18:18;;;;;;;;;9.00;8.67;;;;;;;;5120282;27;45456;-76
2023/08/08 04:20:44;;;;;;;;;9.00;7.67;;;;;;;;5119940;27;45243;-76
2023/08/08 04:23:10;;;;;;;;;10.33;9.00;;;;;;;;5119546;27;45355;-75
2023/08/08 04:25:35;;;;;;;;;7.00;7.00;;;;;;;;5122884;27;45197;-75
2023/08/08 04:28:00;;;;;;;;;11.33;8.00;;;;;;;;5105281;27;45525;-76
2023/08/08 04:30:25;;;;;;;;;7.00;7.00;;;;;;;;5141919;27;45396;-76
2023/08/08 04:32:50;;;;;;;;;7.00;7.00;;;;;;;;5125640;27;47147;-73
2023/08/08 04:35:16;;;;;;;;;9.00;9.00;;;;;;;;5144323;27;45234;-74
2023/08/08 04:37:41;;;;;;;;;6.67;6.67;;;;;;;;5144225;27;45457;-73
2023/08/08 04:40:08;;;;;;;;;10.00;10.00;;;;;;;;5144101;27;45138;-72
2023/08/08 04:42:33;;;;;;;;;9.33;8.67;;;;;;;;5143858;27;45283;-76
2023/08/08 04:44:58;;;;;;;;;10.00;8.33;;;;;;;;5144137;27;45391;-75
2023/08/08 04:47:23;;;;;;;;;7.00;7.00;;;;;;;;5144441;27;45268;-77
2023/08/08 04:49:49;;;;;;;;;9.00;7.33;;;;;;;;5125376;27;46213;-76
2023/08/08 04:52:14;;;;;;;;;7.00;7.00;;;;;;;;5124922;27;47340;-76
2023/08/08 04:54:39;;;;;;;;;7.33;7.33;;;;;;;;5108882;27;45978;-75
2023/08/08 04:57:04;;;;;;;;;9.00;9.00;;;;;;;;5111436;27;45408;-76
2023/08/08 04:59:30;;;;;;;;;7.00;7.00;;;;;;;;5140942;27;45376;-76
2023/08/08 05:01:55;;;;;;;;;11.67;10.00;;;;;;;;5130737;27;45462;-79
2023/08/08 05:04:20;;;;;;;;;9.67;9.00;;;;;;;;5117783;27;45321;-75
2023/08/08 05:06:46;;;;;;;;;8.00;6.67;;;;;;;;5140270;27;45439;-76
2023/08/08 05:09:11;;;;;;;;;10.00;9.00;;;;;;;;5129828;27;45444;-76
2023/08/08 05:11:36;;;;;;;;;9.33;8.67;;;;;;;;5138418;27;46112;-76
2023/08/08 05:14:02;;;;;;;;;7.67;7.67;;;;;;;;5130367;27;45369;-75
2023/08/08 05:16:27;;;;;;;;;9.67;8.33;;;;;;;;5146067;27;45244;-74
2023/08/08 05:18:52;;;;;;;;;11.00;7.00;;;;;;;;5139484;27;45459;-74
2023/08/08 05:21:17;;;;;;;;;8.00;8.00;;;;;;;;5122622;27;45569;-74
2023/08/08 05:23:42;;;;;;;;;9.33;9.33;;;;;;;;5104496;27;45293;-75
2023/08/08 05:26:08;;;;;;;;;6.33;5.67;;;;;;;;5104407;27;45511;-74
2023/08/08 05:28:33;;;;;;;;;7.00;7.00;;;;;;;;5124946;27;45493;-74
2023/08/08 05:30:59;;;;;;;;;13.00;12.67;;;;;;;;5143557;27;45309;-75
2023/08/08 05:33:24;;;;;;;;;8.67;8.67;;;;;;;;5143498;27;45181;-74
2023/08/08 05:35:49;;;;;;;;;8.00;8.00;;;;;;;;5123652;27;45354;-74
2023/08/08 05:38:14;;;;;;;;;7.00;7.00;;;;;;;;5143332;27;45273;-74
2023/08/08 05:40:39;;;;;;;;;8.33;8.33;;;;;;;;5127415;27;45322;-74
2023/08/08 05:43:05;;;;;;;;;10.00;10.00;;;;;;;;5122652;27;45178;-75
2023/08/08 05:45:30;;;;;;;;;9.33;9.33;;;;;;;;5104114;27;45314;-74
2023/08/08 05:47:56;;;;;;;;;11.33;10.33;;;;;;;;5122342;27;45207;-74
2023/08/08 05:50:21;;;;;;;;;10.33;8.67;;;;;;;;5103594;27;47625;-74
2023/08/08 05:52:46;;;;;;;;;7.00;7.00;;;;;;;;5104322;27;45220;-74
2023/08/08 05:55:11;;;;;;;;;11.67;11.67;;;;;;;;5122609;27;45112;-74
2023/08/08 05:57:37;;;;;;;;;9.00;9.00;;;;;;;;5122619;27;45468;-74
2023/08/08 06:00:03;;;;;;;;;11.00;11.00;;;;;;;;5122255;27;45539;-74
2023/08/08 06:02:28;;;;;;;;;9.00;9.00;;;;;;;;5122205;27;45307;-74
2023/08/08 06:04:53;;;;;;;;;14.33;12.67;;;;;;;;5103983;27;45305;-74
2023/08/08 06:07:19;;;;;;;;;11.00;11.00;;;;;;;;5122031;27;45239;-74
2023/08/08 06:09:44;;;;;;;;;8.00;8.00;;;;;;;;5121940;27;45332;-74
2023/08/08 06:12:09;;;;;;;;;5.67;5.00;;;;;;;;5103704;27;46083;-75
2023/08/08 06:14:35;;;;;;;;;9.00;9.00;;;;;;;;5122309;27;45276;-74
2023/08/08 06:17:00;;;;;;;;;9.67;9.67;;;;;;;;5103478;27;46353;-73
2023/08/08 06:19:25;;;;;;;;;6.33;6.33;;;;;;;;5102973;27;47275;-74
2023/08/08 06:21:50;;;;;;;;;7.67;7.67;;;;;;;;5121835;27;45341;-74
2023/08/08 06:24:15;;;;;;;;;5.00;5.00;;;;;;;;5122072;27;45455;-76
2023/08/08 06:26:41;;;;;;;;;7.33;7.00;;;;;;;;5121913;27;45356;-76
2023/08/08 06:29:06;;;;;;;;;7.33;7.33;;;;;;;;5128577;27;46220;-74
2023/08/08 06:31:31;;;;;;;;;7.00;7.00;;;;;;;;5123825;27;45282;-73
2023/08/08 06:33:56;;;;;;;;;8.00;8.00;;;;;;;;5142629;27;45359;-73
2023/08/08 06:36:21;;;;;;;;;9.00;9.00;;;;;;;;5103886;27;47223;-72
2023/08/08 06:38:47;;;;;;;;;8.67;8.00;;;;;;;;5119895;27;46352;-73
2023/08/08 06:41:12;;;;;;;;;7.00;7.00;;;;;;;;5121419;27;45576;-73
2023/08/08 06:43:37;;;;;;;;;10.33;8.33;;;;;;;;5120408;27;45511;-73
2023/08/08 06:46:03;;;;;;;;;9.67;8.00;;;;;;;;5121208;27;45439;-73
2023/08/08 06:48:28;;;;;;;;;6.33;6.33;;;;;;;;5118911;27;45457;-73
2023/08/08 06:50:53;;;;;;;;;7.00;7.00;;;;;;;;5125541;27;45362;-73
2023/08/08 06:53:18;;;;;;;;;8.33;8.00;;;;;;;;5134081;27;45274;-73
2023/08/08 06:55:43;;;;;;;;;8.67;7.67;;;;;;;;5120932;27;45394;-74
2023/08/08 06:58:09;;;;;;;;;5.67;5.67;;;;;;;;5102757;27;46864;-74
2023/08/08 07:00:34;;;;;;;;;7.33;7.33;;;;;;;;5121249;27;45293;-74
2023/08/08 07:02:59;;;;;;;;;6.33;6.33;;;;;;;;5120839;27;45258;-75
2023/08/08 07:05:25;;;;;;;;;8.00;7.33;;;;;;;;5113881;27;45154;-76
2023/08/08 07:07:50;;;;;;;;;8.00;8.00;;;;;;;;5096908;27;47074;-76
2023/08/08 07:10:16;;;;;;;;;7.67;7.00;;;;;;;;5111964;27;45357;-76
2023/08/08 07:12:41;;;;;;;;;7.67;7.00;;;;;;;;5120833;27;45333;-76
2023/08/08 07:15:07;;;;;;;;;8.33;7.33;;;;;;;;5102273;27;45269;-75
2023/08/08 07:17:32;;;;;;;;;7.33;7.33;;;;;;;;5120621;27;45450;-76
2023/08/08 07:19:58;;;;;;;;;6.67;6.67;;;;;;;;5120339;27;45372;-76
2023/08/08 07:22:23;;;;;;;;;5.00;3.33;;;;;;;;5120594;27;45226;-75
2023/08/08 07:24:48;;;;;;;;;6.00;6.00;;;;;;;;5120478;27;45571;-76
2023/08/08 07:27:13;;;;;;;;;5.33;5.33;;;;;;;;5120998;27;45939;-75
2023/08/08 07:29:38;;;;;;;;;6.00;6.00;;;;;;;;5113728;27;45380;-76
2023/08/08 07:32:04;;;;;;;;;6.00;6.00;;;;;;;;5141357;27;45302;-76
2023/08/08 07:34:29;;;;;;;;;5.00;5.00;;;;;;;;5141260;27;45315;-75
2023/08/08 07:36:55;;;;;;;;;6.00;4.00;;;;;;;;5122208;27;47932;-76
2023/08/08 07:39:21;;;;;;;;;6.00;6.00;;;;;;;;5140871;27;45597;-76
2023/08/08 07:41:46;;;;;;;;;6.33;6.00;;;;;;;;5132665;27;45309;-76
2023/08/08 07:44:11;;;;;;;;;8.00;7.00;;;;;;;;5120350;27;45457;-75
2023/08/08 07:46:36;;;;;;;;;7.00;7.00;;;;;;;;5101874;27;46941;-76
2023/08/08 07:49:03;;;;;;;;;6.00;5.67;;;;;;;;5120615;27;45349;-75
2023/08/08 07:51:28;;;;;;;;;4.67;3.67;;;;;;;;5120022;27;45368;-75
2023/08/08 07:53:55;;;;;;;;;8.00;6.00;;;;;;;;5119864;27;46654;-76
2023/08/08 07:56:20;;;;;;;;;5.67;5.00;;;;;;;;5119848;27;45233;-77
2023/08/08 07:58:45;;;;;;;;;4.00;4.00;;;;;;;;5101901;27;45648;-76
2023/08/08 08:01:11;;;;;;;;;6.00;5.33;;;;;;;;5124017;27;45561;-75
2023/08/08 08:03:37;;;;;;;;;5.00;5.00;;;;;;;;5117699;27;46075;-75
2023/08/08 08:06:02;;;;;;;;;5.33;4.00;;;;;;;;5099505;27;48151;-75
2023/08/08 08:08:27;;;;;;;;;4.33;4.33;;;;;;;;5126703;27;45476;-76
2023/08/08 08:10:52;;;;;;;;;4.00;4.00;;;;;;;;5124150;27;45434;-75
2023/08/08 08:13:18;;;;;;;;;3.67;3.67;;;;;;;;5109414;27;46259;-76
2023/08/08 08:15:43;;;;;;;;;3.00;3.00;;;;;;;;5127570;27;46038;-76
2023/08/08 08:18:08;;;;;;;;;3.50;2.00;;;;;;;;5120376;27;45395;-76
2023/08/08 08:20:34;;;;;;;;;1.50;1.50;;;;;;;;5130640;27;45432;-76
2023/08/08 08:22:59;;;;;;;;;2.50;2.50;;;;;;;;5118488;27;45605;-75
2023/08/08 08:25:24;;;;;;;;;1.25;1.00;;;;;;;;5127545;27;46257;-75
2023/08/08 08:27:49;;;;;;;;;2.75;2.75;;;;;;;;5108930;27;45528;-76
2023/08/08 08:30:15;;;;;;;;;2.00;2.00;;;;;;;;5122084;27;45432;-75
2023/08/08 08:32:41;;;;;;;;;1.00;1.00;;;;;;;;5125085;27;45467;-74
2023/08/08 08:35:06;;;;;;;;;1.00;1.00;;;;;;;;5121387;27;45381;-74
2023/08/08 08:37:32;;;;;;;;;2.00;2.00;;;;;;;;5128044;27;45413;-76
2023/08/08 08:39:57;;;;;;;;;2.00;2.00;;;;;;;;5106687;27;45380;-74
2023/08/08 08:42:23;;;;;;;;;2.00;2.00;;;;;;;;5098439;27;46096;-75
2023/08/08 08:44:49;;;;;;;;;1.00;1.00;;;;;;;;5105922;27;45362;-75
2023/08/08 08:47:16;;;;;;;;;0.50;0.50;;;;;;;;5137966;27;45431;-75
2023/08/08 08:49:42;;;;;;;;;0.00;0.00;;;;;;;;5126162;27;45613;-74
2023/08/08 08:52:07;;;;;;;;;2.00;1.00;;;;;;;;5114759;27;46288;-75
2023/08/08 08:54:33;;;;;;;;;1.00;1.00;;;;;;;;5141235;27;46319;-74
2023/08/08 08:56:58;;;;;;;;;1.00;1.00;;;;;;;;5122970;27;45275;-74
2023/08/08 08:59:23;;;;;;;;;1.00;1.00;;;;;;;;5137827;27;45475;-74
2023/08/08 09:01:49;;;;;;;;;2.00;2.00;;;;;;;;5112562;27;45402;-75
2023/08/08 09:04:16;;;;;;;;;2.00;2.00;;;;;;;;5117218;27;46319;-76
2023/08/08 09:06:42;;;;;;;;;0.50;0.50;;;;;;;;5122970;27;45348;-76
2023/08/08 09:09:07;;;;;;;;;1.00;1.00;;;;;;;;5123017;27;45275;-75
2023/08/08 09:11:33;;;;;;;;;1.00;1.00;;;;;;;;5130330;27;45317;-75
2023/08/08 09:13:59;;;;;;;;;1.75;1.75;;;;;;;;5128198;27;45465;-75
2023/08/08 09:16:25;;;;;;;;;2.00;2.00;;;;;;;;5122444;27;45350;-74
2023/08/08 09:18:50;;;;;;;;;1.00;1.00;;;;;;;;5122654;27;45482;-74
2023/08/08 09:21:15;;;;;;;;;1.00;1.00;;;;;;;;5123452;27;45449;-74
2023/08/08 09:23:41;;;;;;;;;1.50;0.75;;;;;;;;5086847;27;47074;-75
2023/08/08 09:26:06;;;;;;;;;1.50;1.50;;;;;;;;5105499;27;45282;-75
2023/08/08 09:28:31;;;;;;;;;2.25;2.25;;;;;;;;5111379;27;45165;-75
2023/08/08 09:30:57;;;;;;;;;1.25;1.25;;;;;;;;5102210;27;45528;-77
2023/08/08 09:33:22;;;;;;;;;2.50;2.50;;;;;;;;5101507;27;45875;-75
2023/08/08 09:35:47;;;;;;;;;3.00;1.50;;;;;;;;5101354;27;45314;-75
2023/08/08 09:38:12;;;;;;;;;2.00;2.00;;;;;;;;5101575;27;45381;-75
2023/08/08 09:40:38;;;;;;;;;3.00;3.00;;;;;;;;5082002;27;46102;-75
2023/08/08 09:43:06;;;;;;;;;2.50;2.50;;;;;;;;5107595;27;45349;-77
2023/08/08 09:45:35;;;;;;;;;2.00;1.00;;;;;;;;5090162;27;45429;-78
2023/08/08 09:48:00;;;;;;;;;3.00;3.00;;;;;;;;5091211;27;45428;-76
2023/08/08 09:50:26;;;;;;;;;4.00;2.00;;;;;;;;5110312;27;45361;-76
2023/08/08 09:52:53;;;;;;;;;1.00;1.00;;;;;;;;5115268;27;45263;-77
2023/08/08 09:55:18;;;;;;;;;1.00;1.00;;;;;;;;5100213;27;45296;-77
2023/08/08 09:57:44;;;;;;;;;5.00;3.00;;;;;;;;5101242;27;45326;-75
2023/08/08 10:00:16;;;;;;;;;1.67;1.67;;;;;;;;5082728;27;46130;-76
2023/08/08 10:02:42;;;;;;;;;1.33;1.33;;;;;;;;5101114;27;45217;-76
2023/08/08 10:05:09;;;;;;;;;2.25;2.25;;;;;;;;5100691;27;45282;-76
2023/08/08 10:07:35;;;;;;;;;3.33;2.33;;;;;;;;5100129;27;45316;-77
2023/08/08 10:10:00;;;;;;;;;2.00;2.00;;;;;;;;5099706;27;46046;-79
2023/08/08 10:12:25;;;;;;;;;2.67;2.67;;;;;;;;5123029;27;45776;-79
2023/08/08 10:14:51;;;;;;;;;3.00;3.00;;;;;;;;5123799;27;45338;-79
2023/08/08 10:17:17;;;;;;;;;3.00;3.00;;;;;;;;5103883;27;45379;-78
2023/08/08 10:19:54;;;;;;;;;2.00;2.00;;;;;;;;5121869;27;45468;-78
2023/08/08 10:22:22;;;;;;;;;4.33;2.67;;;;;;;;5122094;27;45233;-79
2023/08/08 10:24:48;;;;;;;;;2.67;2.67;;;;;;;;5122768;27;45432;-79
2023/08/08 10:27:15;;;;;;;;;6.33;4.33;;;;;;;;5122722;27;45384;-79
2023/08/08 10:29:40;;;;;;;;;4.33;4.33;;;;;;;;5114515;27;46859;-78
2023/08/08 10:32:06;;;;;;;;;4.67;3.33;;;;;;;;5142018;27;45425;-76
2023/08/08 10:34:38;;;;;;;;;4.00;3.00;;;;;;;;5142358;27;45383;-79
2023/08/08 10:37:04;;;;;;;;;2.67;2.67;;;;;;;;5108424;27;45429;-79
2023/08/08 10:39:30;;;;;;;;;5.00;5.00;;;;;;;;5121965;27;45728;-75
2023/08/08 10:42:00;;;;;;;;;2.67;2.67;;;;;;;;5121909;27;45483;-78
2023/08/08 10:44:25;;;;;;;;;4.50;4.50;;;;;;;;5121441;27;45329;-78
2023/08/08 10:46:51;;;;;;;;;2.00;2.00;;;;;;;;5121387;27;45355;-77
2023/08/08 10:49:17;;;;;;;;;2.00;2.00;;;;;;;;5121286;27;45527;-77
2023/08/08 10:51:44;;;;;;;;;4.00;2.75;;;;;;;;5121046;27;45402;-77
2023/08/08 10:54:12;;;;;;;;;2.33;2.33;;;;;;;;5114639;27;45487;-79
2023/08/08 10:56:37;;;;;;;;;4.00;4.00;;;;;;;;5112461;27;45428;-76
2023/08/08 10:59:12;;;;;;;;;2.50;2.50;;;;;;;;5100018;27;45344;-77
2023/08/08 11:01:38;;;;;;;;;2.00;2.00;;;;;;;;5099986;27;46312;-77
2023/08/08 11:04:04;;;;;;;;;2.75;2.75;;;;;;;;5109955;27;45421;-76
2023/08/08 11:06:29;;;;;;;;;4.00;4.00;;;;;;;;5100851;27;45428;-76
2023/08/08 11:08:54;;;;;;;;;4.67;4.33;;;;;;;;5099661;27;45287;-75
2023/08/08 11:11:19;;;;;;;;;3.25;3.25;;;;;;;;5087909;27;47999;-76
2023/08/08 11:13:44;;;;;;;;;3.25;3.00;;;;;;;;5119636;27;45451;-75
2023/08/08 11:16:10;;;;;;;;;5.00;4.00;;;;;;;;5120742;27;45270;-78
2023/08/08 11:18:35;;;;;;;;;4.00;4.00;;;;;;;;5112301;27;45278;-76
2023/08/08 11:21:00;;;;;;;;;3.33;3.00;;;;;;;;5110026;27;45547;-78
2023/08/08 11:23:25;;;;;;;;;1.75;1.50;;;;;;;;5109687;27;45422;-76
2023/08/08 11:25:50;;;;;;;;;3.00;2.00;;;;;;;;5092107;27;45644;-75
2023/08/08 11:28:16;;;;;;;;;4.50;3.25;;;;;;;;5111382;27;45458;-76
2023/08/08 11:30:42;;;;;;;;;3.00;3.00;;;;;;;;5124383;27;46275;-76
2023/08/08 11:33:07;;;;;;;;;5.00;5.00;;;;;;;;5112433;27;45371;-77
2023/08/08 11:35:34;;;;;;;;;6.67;6.67;;;;;;;;5112280;27;45292;-78
2023/08/08 11:37:59;;;;;;;;;3.67;3.67;;;;;;;;5115574;27;45351;-75
2023/08/08 11:40:25;;;;;;;;;3.00;3.00;;;;;;;;5112120;27;46020;-76
2023/08/08 11:42:51;;;;;;;;;4.00;4.00;;;;;;;;5089255;27;45563;-75
2023/08/08 11:45:17;;;;;;;;;2.75;2.75;;;;;;;;5107494;27;45274;-75
2023/08/08 11:47:42;;;;;;;;;3.00;3.00;;;;;;;;5095834;27;47586;-75
2023/08/08 11:50:09;;;;;;;;;4.00;4.00;;;;;;;;5108472;27;46254;-76
2023/08/08 11:52:41;;;;;;;;;2.75;2.75;;;;;;;;5123538;27;45642;-76
2023/08/08 11:55:07;;;;;;;;;1.00;1.00;;;;;;;;5122809;27;45400;-75
2023/08/08 11:57:33;;;;;;;;;1.25;1.25;;;;;;;;5123488;27;45291;-75
2023/08/08 11:59:58;;;;;;;;;3.25;3.00;;;;;;;;5123717;27;46338;-75
2023/08/08 12:02:25;;;;;;;;;3.50;3.00;;;;;;;;5113247;27;45485;-75
2023/08/08 12:04:50;;;;;;;;;3.00;3.00;;;;;;;;5105000;27;45377;-75
2023/08/08 12:07:17;;;;;;;;;5.00;5.00;;;;;;;;5123030;27;45160;-76
2023/08/08 12:09:42;;;;;;;;;3.00;3.00;;;;;;;;5121992;27;46479;-76
2023/08/08 12:12:08;;;;;;;;;2.75;2.75;;;;;;;;5123652;27;45294;-76
2023/08/08 12:14:42;;;;;;;;;2.75;2.25;;;;;;;;5123620;27;45321;-76
2023/08/08 12:17:08;;;;;;;;;3.00;3.00;;;;;;;;5104748;27;46330;-77
2023/08/08 12:19:34;;;;;;;;;4.00;4.00;;;;;;;;5122904;27;45531;-76
2023/08/08 12:21:59;;;;;;;;;2.33;2.33;;;;;;;;5123331;27;45219;-75
2023/08/08 12:24:24;;;;;;;;;4.33;3.67;;;;;;;;5122774;27;45255;-75
2023/08/08 12:26:49;;;;;;;;;6.67;5.67;;;;;;;;5097891;27;46300;-79
2023/08/08 12:29:14;;;;;;;;;3.67;3.67;;;;;;;;5112146;27;46245;-76
2023/08/08 12:31:39;;;;;;;;;3.00;3.00;;;;;;;;5112085;27;45718;-75
2023/08/08 12:34:05;;;;;;;;;5.33;4.67;;;;;;;;5103981;27;45293;-75
2023/08/08 12:36:30;;;;;;;;;3.00;3.00;;;;;;;;5121826;27;45417;-76
2023/08/08 12:38:55;;;;;;;;;2.00;2.00;;;;;;;;5121782;27;45693;-76
2023/08/08 12:41:20;;;;;;;;;1.75;1.75;;;;;;;;5119313;27;45294;-75
2023/08/08 12:43:45;;;;;;;;;3.00;3.00;;;;;;;;5113315;27;45967;-74
2023/08/08 12:46:11;;;;;;;;;3.33;3.33;;;;;;;;5101875;27;47071;-75
2023/08/08 12:48:36;;;;;;;;;4.00;4.00;;;;;;;;5124991;27;46446;-75
2023/08/08 12:51:01;;;;;;;;;2.00;2.00;;;;;;;;5115698;27;45401;-75
2023/08/08 12:53:26;;;;;;;;;3.50;3.50;;;;;;;;5084074;27;45706;-76
2023/08/08 12:55:52;;;;;;;;;4.00;4.00;;;;;;;;5130727;27;45404;-76
2023/08/08 12:58:17;;;;;;;;;1.50;1.50;;;;;;;;5122460;27;47070;-75
2023/08/08 13:00:42;;;;;;;;;3.00;3.00;;;;;;;;5140823;27;45677;-75
2023/08/08 13:03:07;;;;;;;;;2.25;2.25;;;;;;;;5122554;27;45397;-75
2023/08/08 13:05:33;;;;;;;;;4.50;4.50;;;;;;;;5141776;27;45611;-75
2023/08/08 13:07:58;;;;;;;;;3.00;2.75;;;;;;;;5142193;27;46309;-75
2023/08/08 13:10:23;;;;;;;;;5.67;5.67;;;;;;;;5128295;27;45565;-75
2023/08/08 13:12:48;;;;;;;;;3.00;3.00;;;;;;;;5121474;27;45432;-77
2023/08/08 13:15:14;;;;;;;;;2.50;2.50;;;;;;;;5117487;27;45463;-76
2023/08/08 13:17:39;;;;;;;;;3.25;3.25;;;;;;;;5089134;27;47978;-76
2023/08/08 13:20:05;;;;;;;;;2.50;2.50;;;;;;;;5112760;27;45423;-76
2023/08/08 13:22:30;;;;;;;;;2.00;2.00;;;;;;;;5112388;27;45204;-76
2023/08/08 13:24:55;;;;;;;;;2.00;2.00;;;;;;;;5089234;27;47064;-75
2023/08/08 13:27:21;;;;;;;;;1.50;1.50;;;;;;;;5103902;27;47346;-75
2023/08/08 13:29:46;;;;;;;;;2.00;2.00;;;;;;;;5134752;27;45271;-76
2023/08/08 13:32:11;;;;;;;;;2.75;2.75;;;;;;;;5143462;27;45303;-76
2023/08/08 13:34:36;;;;;;;;;3.00;3.00;;;;;;;;5124395;27;45981;-78
2023/08/08 13:37:03;;;;;;;;;3.00;3.00;;;;;;;;5119398;27;46077;-75
2023/08/08 13:39:28;;;;;;;;;3.25;3.00;;;;;;;;5109800;27;45448;-75
2023/08/08 13:41:53;;;;;;;;;2.00;2.00;;;;;;;;5096697;27;45519;-75
2023/08/08 13:44:18;;;;;;;;;2.33;2.33;;;;;;;;5099957;27;47257;-75
2023/08/08 13:46:43;;;;;;;;;4.50;3.00;;;;;;;;5096474;27;45435;-79
2023/08/08 13:49:08;;;;;;;;;4.75;4.00;;;;;;;;5098334;27;45111;-75
2023/08/08 13:51:33;;;;;;;;;2.00;2.00;;;;;;;;5091682;27;45425;-75
2023/08/08 13:53:59;;;;;;;;;3.50;3.50;;;;;;;;5091127;27;45289;-75
2023/08/08 13:56:24;;;;;;;;;3.75;3.50;;;;;;;;5094863;27;45250;-74
2023/08/08 13:58:49;;;;;;;;;3.00;3.00;;;;;;;;5091525;27;45270;-75
2023/08/08 14:01:14;;;;;;;;;2.00;2.00;;;;;;;;5091813;27;45574;-76
2023/08/08 14:03:40;;;;;;;;;4.00;4.00;;;;;;;;5098253;27;46871;-74
2023/08/08 14:06:06;;;;;;;;;2.50;2.50;;;;;;;;5100859;27;45490;-74
2023/08/08 14:08:31;;;;;;;;;2.75;2.75;;;;;;;;5101395;27;45339;-75
2023/08/08 14:10:56;;;;;;;;;2.00;2.00;;;;;;;;5099576;27;45357;-76
2023/08/08 14:13:21;;;;;;;;;2.75;2.75;;;;;;;;5099878;27;46834;-75
2023/08/08 14:15:47;;;;;;;;;2.00;2.00;;;;;;;;5100041;27;47659;-75
2023/08/08 14:18:13;;;;;;;;;0.75;0.75;;;;;;;;5100760;27;45717;-75
2023/08/08 14:20:38;;;;;;;;;4.00;4.00;;;;;;;;5100132;27;45438;-75
2023/08/08 14:23:03;;;;;;;;;1.25;1.25;;;;;;;;5099752;27;47203;-75
2023/08/08 14:25:29;;;;;;;;;3.00;3.00;;;;;;;;5101024;27;45261;-74
2023/08/08 14:27:56;;;;;;;;;4.75;2.75;;;;;;;;5089483;27;45962;-79
2023/08/08 14:30:22;;;;;;;;;3.00;2.00;;;;;;;;5096954;27;45820;-78